sensor_id;sensor_type;location;lat;lon;timestamp;P1;durP1;ratioP1;P2;durP2;ratioP2
20397;SDS011;10358;49.590;11.030;2023-01-10T00:00:05;4.00;;;1.40;;
20397;SDS011;10358;49.590;11.030;2023-01-10T00:02:31;3.67;;;1.40;;
20397;SDS011;10358;49.590;11.030;2023-01-10T00:04:57;3.53;;;1.33;;
20397;SDS011;10358;49.590;11.030;2023-01-10T00:07:22;5.97;;;1.63;;
20397;SDS011;10358;49.590;11.030;2023-01-10T00:09:48;4.07;;;1.50;;
20397;SDS011;10358;49.590;11.030;2023-01-10T00:12:13;3.60;;;1.40;;
20397;SDS011;10358;49.590;11.030;2023-01-10T00:14:58;4.53;;;1.60;;
20397;SDS011;10358;49.590;11.030;2023-01-10T00:17:23;2.67;;;1.43;;
20397;SDS011;10358;49.590;11.030;2023-01-10T00:19:49;4.67;;;1.67;;
20397;SDS011;10358;49.590;11.030;2023-01-10T00:22:14;3.53;;;1.50;;
20397;SDS011;10358;49.590;11.030;2023-01-10T00:24:42;2.47;;;1.40;;
20397;SDS011;10358;49.590;11.030;2023-01-10T00:27:08;5.40;;;1.50;;
20397;SDS011;10358;49.590;11.030;2023-01-10T00:29:36;4.03;;;1.70;;
20397;SDS011;10358;49.590;11.030;2023-01-10T00:32:02;3.83;;;1.43;;
20397;SDS011;10358;49.590;11.030;2023-01-10T00:34:28;4.87;;;1.57;;
20397;SDS011;10358;49.590;11.030;2023-01-10T00:36:55;3.03;;;1.40;;
20397;SDS011;10358;49.590;11.030;2023-01-10T00:39:20;4.30;;;1.57;;
20397;SDS011;10358;49.590;11.030;2023-01-10T00:41:46;2.87;;;1.40;;
20397;SDS011;10358;49.590;11.030;2023-01-10T00:44:30;2.23;;;1.50;;
20397;SDS011;10358;49.590;11.030;2023-01-10T00:46:56;4.73;;;1.57;;
20397;SDS011;10358;49.590;11.030;2023-01-10T00:49:21;2.77;;;1.50;;
20397;SDS011;10358;49.590;11.030;2023-01-10T00:51:47;2.70;;;1.50;;
20397;SDS011;10358;49.590;11.030;2023-01-10T00:54:13;3.83;;;1.60;;
20397;SDS011;10358;49.590;11.030;2023-01-10T00:56:39;3.87;;;1.60;;
20397;SDS011;10358;49.590;11.030;2023-01-10T00:59:05;2.47;;;1.67;;
20397;SDS011;10358;49.590;11.030;2023-01-10T01:01:31;3.77;;;1.93;;
20397;SDS011;10358;49.590;11.030;2023-01-10T01:03:57;3.07;;;1.90;;
20397;SDS011;10358;49.590;11.030;2023-01-10T01:06:25;3.60;;;1.70;;
20397;SDS011;10358;49.590;11.030;2023-01-10T01:08:51;3.93;;;1.90;;
20397;SDS011;10358;49.590;11.030;2023-01-10T01:11:16;5.03;;;1.97;;
20397;SDS011;10358;49.590;11.030;2023-01-10T01:13:42;3.40;;;1.83;;
20397;SDS011;10358;49.590;11.030;2023-01-10T01:16:07;3.77;;;1.93;;
20397;SDS011;10358;49.590;11.030;2023-01-10T01:18:33;4.53;;;2.30;;
20397;SDS011;10358;49.590;11.030;2023-01-10T01:20:58;5.33;;;2.10;;
20397;SDS011;10358;49.590;11.030;2023-01-10T01:23:27;4.30;;;2.20;;
20397;SDS011;10358;49.590;11.030;2023-01-10T01:25:54;3.97;;;2.17;;
20397;SDS011;10358;49.590;11.030;2023-01-10T01:28:20;5.60;;;2.30;;
20397;SDS011;10358;49.590;11.030;2023-01-10T01:30:46;3.57;;;2.30;;
20397;SDS011;10358;49.590;11.030;2023-01-10T01:33:11;5.37;;;2.60;;
20397;SDS011;10358;49.590;11.030;2023-01-10T01:35:40;4.53;;;2.40;;
20397;SDS011;10358;49.590;11.030;2023-01-10T01:38:10;5.40;;;3.10;;
20397;SDS011;10358;49.590;11.030;2023-01-10T01:40:36;5.37;;;3.20;;
20397;SDS011;10358;49.590;11.030;2023-01-10T01:43:03;4.23;;;2.67;;
20397;SDS011;10358;49.590;11.030;2023-01-10T01:45:38;4.13;;;2.67;;
20397;SDS011;10358;49.590;11.030;2023-01-10T01:48:15;5.63;;;2.70;;
20397;SDS011;10358;49.590;11.030;2023-01-10T01:51:02;5.43;;;2.60;;
20397;SDS011;10358;49.590;11.030;2023-01-10T01:53:43;4.83;;;2.70;;
20397;SDS011;10358;49.590;11.030;2023-01-10T01:56:23;5.83;;;2.40;;
20397;SDS011;10358;49.590;11.030;2023-01-10T01:59:02;3.63;;;2.47;;
20397;SDS011;10358;49.590;11.030;2023-01-10T02:01:33;4.13;;;2.30;;
20397;SDS011;10358;49.590;11.030;2023-01-10T02:04:12;5.90;;;2.53;;
20397;SDS011;10358;49.590;11.030;2023-01-10T02:06:48;5.97;;;2.60;;
20397;SDS011;10358;49.590;11.030;2023-01-10T02:09:20;3.83;;;2.33;;
20397;SDS011;10358;49.590;11.030;2023-01-10T02:11:53;4.70;;;2.57;;
20397;SDS011;10358;49.590;11.030;2023-01-10T02:14:19;4.40;;;2.30;;
20397;SDS011;10358;49.590;11.030;2023-01-10T02:16:47;4.20;;;2.10;;
20397;SDS011;10358;49.590;11.030;2023-01-10T02:19:16;2.93;;;2.10;;
20397;SDS011;10358;49.590;11.030;2023-01-10T02:43:25;2.83;;;2.00;;
20397;SDS011;10358;49.590;11.030;2023-01-10T02:46:05;3.37;;;2.20;;
20397;SDS011;10358;49.590;11.030;2023-01-10T02:48:35;3.33;;;1.80;;
20397;SDS011;10358;49.590;11.030;2023-01-10T02:51:07;3.77;;;2.10;;
20397;SDS011;10358;49.590;11.030;2023-01-10T02:53:36;2.50;;;2.00;;
20397;SDS011;10358;49.590;11.030;2023-01-10T03:01:51;2.53;;;2.10;;
20397;SDS011;10358;49.590;11.030;2023-01-10T03:09:43;3.13;;;2.30;;
20397;SDS011;10358;49.590;11.030;2023-01-10T03:14:52;3.10;;;2.30;;
20397;SDS011;10358;49.590;11.030;2023-01-10T03:17:19;4.90;;;2.57;;
20397;SDS011;10358;49.590;11.030;2023-01-10T03:19:49;3.03;;;2.47;;
20397;SDS011;10358;49.590;11.030;2023-01-10T03:22:18;2.90;;;2.40;;
20397;SDS011;10358;49.590;11.030;2023-01-10T03:24:45;3.47;;;2.63;;
20397;SDS011;10358;49.590;11.030;2023-01-10T03:32:45;5.20;;;2.73;;
20397;SDS011;10358;49.590;11.030;2023-01-10T03:35:11;4.13;;;2.77;;
20397;SDS011;10358;49.590;11.030;2023-01-10T03:37:41;5.13;;;2.63;;
20397;SDS011;10358;49.590;11.030;2023-01-10T03:42:49;5.37;;;2.73;;
20397;SDS011;10358;49.590;11.030;2023-01-10T03:46:00;3.90;;;2.70;;
20397;SDS011;10358;49.590;11.030;2023-01-10T03:48:42;4.00;;;2.77;;
20397;SDS011;10358;49.590;11.030;2023-01-10T03:51:10;4.13;;;2.80;;
20397;SDS011;10358;49.590;11.030;2023-01-10T03:53:38;4.27;;;2.83;;
20397;SDS011;10358;49.590;11.030;2023-01-10T03:56:04;4.53;;;2.70;;
20397;SDS011;10358;49.590;11.030;2023-01-10T03:58:31;5.50;;;3.17;;
20397;SDS011;10358;49.590;11.030;2023-01-10T04:00:57;4.23;;;2.67;;
20397;SDS011;10358;49.590;11.030;2023-01-10T04:03:22;4.77;;;3.10;;
20397;SDS011;10358;49.590;11.030;2023-01-10T04:05:48;3.50;;;2.50;;
20397;SDS011;10358;49.590;11.030;2023-01-10T04:08:14;4.63;;;2.43;;
20397;SDS011;10358;49.590;11.030;2023-01-10T04:10:39;5.03;;;2.70;;
20397;SDS011;10358;49.590;11.030;2023-01-10T04:13:05;3.87;;;2.60;;
20397;SDS011;10358;49.590;11.030;2023-01-10T04:15:30;4.67;;;2.57;;
20397;SDS011;10358;49.590;11.030;2023-01-10T04:17:56;3.33;;;2.70;;
20397;SDS011;10358;49.590;11.030;2023-01-10T04:20:22;5.63;;;2.93;;
20397;SDS011;10358;49.590;11.030;2023-01-10T04:22:51;4.83;;;3.10;;
20397;SDS011;10358;49.590;11.030;2023-01-10T04:25:18;3.70;;;2.80;;
20397;SDS011;10358;49.590;11.030;2023-01-10T04:27:45;5.83;;;3.00;;
20397;SDS011;10358;49.590;11.030;2023-01-10T04:30:12;4.73;;;3.07;;
20397;SDS011;10358;49.590;11.030;2023-01-10T04:32:38;4.90;;;3.20;;
20397;SDS011;10358;49.590;11.030;2023-01-10T04:35:03;7.47;;;3.33;;
20397;SDS011;10358;49.590;11.030;2023-01-10T04:37:29;6.17;;;3.10;;
20397;SDS011;10358;49.590;11.030;2023-01-10T04:39:54;4.83;;;3.17;;
20397;SDS011;10358;49.590;11.030;2023-01-10T04:42:20;5.57;;;3.10;;
20397;SDS011;10358;49.590;11.030;2023-01-10T04:44:47;4.63;;;2.77;;
20397;SDS011;10358;49.590;11.030;2023-01-10T04:47:12;5.53;;;2.90;;
20397;SDS011;10358;49.590;11.030;2023-01-10T04:49:38;7.40;;;3.10;;
20397;SDS011;10358;49.590;11.030;2023-01-10T04:52:03;6.07;;;3.30;;
20397;SDS011;10358;49.590;11.030;2023-01-10T04:54:29;3.50;;;2.90;;
20397;SDS011;10358;49.590;11.030;2023-01-10T04:56:55;4.30;;;3.13;;
20397;SDS011;10358;49.590;11.030;2023-01-10T04:59:20;4.87;;;3.10;;
20397;SDS011;10358;49.590;11.030;2023-01-10T05:01:46;4.47;;;2.87;;
20397;SDS011;10358;49.590;11.030;2023-01-10T05:04:12;4.17;;;3.10;;
20397;SDS011;10358;49.590;11.030;2023-01-10T05:06:37;4.77;;;2.87;;
20397;SDS011;10358;49.590;11.030;2023-01-10T05:09:04;5.57;;;3.20;;
20397;SDS011;10358;49.590;11.030;2023-01-10T05:11:31;5.33;;;2.70;;
20397;SDS011;10358;49.590;11.030;2023-01-10T05:13:56;3.87;;;2.50;;
20397;SDS011;10358;49.590;11.030;2023-01-10T05:16:22;6.67;;;3.20;;
20397;SDS011;10358;49.590;11.030;2023-01-10T05:18:49;5.27;;;3.67;;
20397;SDS011;10358;49.590;11.030;2023-01-10T05:21:14;11.73;;;5.73;;
20397;SDS011;10358;49.590;11.030;2023-01-10T05:23:40;5.73;;;3.83;;
20397;SDS011;10358;49.590;11.030;2023-01-10T05:26:13;12.40;;;7.97;;
20397;SDS011;10358;49.590;11.030;2023-01-10T05:28:40;8.63;;;4.30;;
20397;SDS011;10358;49.590;11.030;2023-01-10T05:31:07;10.70;;;5.93;;
20397;SDS011;10358;49.590;11.030;2023-01-10T05:33:35;6.70;;;3.80;;
20397;SDS011;10358;49.590;11.030;2023-01-10T05:36:01;6.00;;;3.30;;
20397;SDS011;10358;49.590;11.030;2023-01-10T05:38:28;8.17;;;4.60;;
20397;SDS011;10358;49.590;11.030;2023-01-10T05:40:54;26.27;;;12.73;;
20397;SDS011;10358;49.590;11.030;2023-01-10T05:43:21;15.00;;;9.17;;
20397;SDS011;10358;49.590;11.030;2023-01-10T05:45:47;10.07;;;4.80;;
20397;SDS011;10358;49.590;11.030;2023-01-10T05:48:13;9.20;;;4.43;;
20397;SDS011;10358;49.590;11.030;2023-01-10T05:50:38;8.10;;;4.93;;
20397;SDS011;10358;49.590;11.030;2023-01-10T05:53:04;8.93;;;4.70;;
20397;SDS011;10358;49.590;11.030;2023-01-10T05:55:31;8.03;;;4.87;;
20397;SDS011;10358;49.590;11.030;2023-01-10T05:57:57;9.17;;;4.60;;
20397;SDS011;10358;49.590;11.030;2023-01-10T06:00:23;13.53;;;4.37;;
20397;SDS011;10358;49.590;11.030;2023-01-10T06:02:49;6.73;;;3.87;;
20397;SDS011;10358;49.590;11.030;2023-01-10T06:05:15;5.53;;;3.57;;
20397;SDS011;10358;49.590;11.030;2023-01-10T06:07:40;9.03;;;5.27;;
20397;SDS011;10358;49.590;11.030;2023-01-10T06:10:06;5.13;;;3.37;;
20397;SDS011;10358;49.590;11.030;2023-01-10T06:12:32;9.20;;;3.60;;
20397;SDS011;10358;49.590;11.030;2023-01-10T06:14:58;9.60;;;3.33;;
20397;SDS011;10358;49.590;11.030;2023-01-10T06:17:23;6.50;;;3.00;;
20397;SDS011;10358;49.590;11.030;2023-01-10T06:19:49;9.20;;;3.77;;
20397;SDS011;10358;49.590;11.030;2023-01-10T06:22:16;6.37;;;3.80;;
20397;SDS011;10358;49.590;11.030;2023-01-10T06:24:42;7.30;;;3.53;;
20397;SDS011;10358;49.590;11.030;2023-01-10T06:27:07;7.87;;;2.80;;
20397;SDS011;10358;49.590;11.030;2023-01-10T06:29:33;7.50;;;2.80;;
20397;SDS011;10358;49.590;11.030;2023-01-10T06:31:58;3.00;;;2.43;;
20397;SDS011;10358;49.590;11.030;2023-01-10T06:34:24;10.90;;;6.20;;
20397;SDS011;10358;49.590;11.030;2023-01-10T06:36:49;10.00;;;4.60;;
20397;SDS011;10358;49.590;11.030;2023-01-10T06:39:15;8.60;;;4.17;;
20397;SDS011;10358;49.590;11.030;2023-01-10T06:41:41;7.53;;;3.27;;
20397;SDS011;10358;49.590;11.030;2023-01-10T06:44:06;7.50;;;3.90;;
20397;SDS011;10358;49.590;11.030;2023-01-10T06:46:32;6.40;;;2.73;;
20397;SDS011;10358;49.590;11.030;2023-01-10T06:48:57;8.43;;;3.27;;
20397;SDS011;10358;49.590;11.030;2023-01-10T06:51:23;7.73;;;3.67;;
20397;SDS011;10358;49.590;11.030;2023-01-10T06:53:48;9.50;;;3.17;;
20397;SDS011;10358;49.590;11.030;2023-01-10T06:56:14;6.43;;;2.50;;
20397;SDS011;10358;49.590;11.030;2023-01-10T06:58:39;7.80;;;2.60;;
20397;SDS011;10358;49.590;11.030;2023-01-10T07:01:06;4.07;;;2.40;;
20397;SDS011;10358;49.590;11.030;2023-01-10T07:03:37;7.73;;;3.37;;
20397;SDS011;10358;49.590;11.030;2023-01-10T07:06:04;6.27;;;3.20;;
20397;SDS011;10358;49.590;11.030;2023-01-10T07:08:34;6.27;;;2.90;;
20397;SDS011;10358;49.590;11.030;2023-01-10T07:11:00;6.00;;;3.10;;
20397;SDS011;10358;49.590;11.030;2023-01-10T07:13:26;10.40;;;3.00;;
20397;SDS011;10358;49.590;11.030;2023-01-10T07:15:51;4.47;;;2.60;;
20397;SDS011;10358;49.590;11.030;2023-01-10T07:18:25;6.40;;;3.00;;
20397;SDS011;10358;49.590;11.030;2023-01-10T07:20:51;8.93;;;2.83;;
20397;SDS011;10358;49.590;11.030;2023-01-10T07:23:16;10.10;;;3.10;;
20397;SDS011;10358;49.590;11.030;2023-01-10T07:25:42;5.40;;;2.77;;
20397;SDS011;10358;49.590;11.030;2023-01-10T07:28:07;5.03;;;2.70;;
20397;SDS011;10358;49.590;11.030;2023-01-10T07:30:33;9.03;;;4.47;;
20397;SDS011;10358;49.590;11.030;2023-01-10T07:32:58;9.63;;;3.10;;
20397;SDS011;10358;49.590;11.030;2023-01-10T07:35:27;6.43;;;2.60;;
20397;SDS011;10358;49.590;11.030;2023-01-10T07:37:52;8.17;;;3.10;;
20397;SDS011;10358;49.590;11.030;2023-01-10T07:40:21;6.73;;;2.70;;
20397;SDS011;10358;49.590;11.030;2023-01-10T07:42:47;9.80;;;2.53;;
20397;SDS011;10358;49.590;11.030;2023-01-10T07:45:12;6.80;;;2.63;;
20397;SDS011;10358;49.590;11.030;2023-01-10T07:47:38;5.50;;;2.70;;
20397;SDS011;10358;49.590;11.030;2023-01-10T07:50:03;7.60;;;2.40;;
20397;SDS011;10358;49.590;11.030;2023-01-10T07:52:29;6.73;;;2.27;;
20397;SDS011;10358;49.590;11.030;2023-01-10T07:54:56;8.20;;;2.67;;
20397;SDS011;10358;49.590;11.030;2023-01-10T07:57:21;6.57;;;2.63;;
20397;SDS011;10358;49.590;11.030;2023-01-10T07:59:47;6.73;;;2.50;;
20397;SDS011;10358;49.590;11.030;2023-01-10T08:02:12;5.27;;;2.83;;
20397;SDS011;10358;49.590;11.030;2023-01-10T08:04:38;7.90;;;2.50;;
20397;SDS011;10358;49.590;11.030;2023-01-10T08:07:04;5.10;;;2.43;;
20397;SDS011;10358;49.590;11.030;2023-01-10T08:09:29;9.80;;;2.50;;
20397;SDS011;10358;49.590;11.030;2023-01-10T08:11:55;7.13;;;2.30;;
20397;SDS011;10358;49.590;11.030;2023-01-10T08:14:20;9.13;;;3.10;;
20397;SDS011;10358;49.590;11.030;2023-01-10T08:16:46;8.27;;;2.43;;
20397;SDS011;10358;49.590;11.030;2023-01-10T08:19:11;8.07;;;2.60;;
20397;SDS011;10358;49.590;11.030;2023-01-10T08:21:40;9.43;;;2.53;;
20397;SDS011;10358;49.590;11.030;2023-01-10T08:24:06;5.87;;;2.20;;
20397;SDS011;10358;49.590;11.030;2023-01-10T08:26:32;9.23;;;2.80;;
20397;SDS011;10358;49.590;11.030;2023-01-10T08:28:58;4.87;;;2.20;;
20397;SDS011;10358;49.590;11.030;2023-01-10T08:31:24;7.47;;;2.20;;
20397;SDS011;10358;49.590;11.030;2023-01-10T08:33:49;7.17;;;2.03;;
20397;SDS011;10358;49.590;11.030;2023-01-10T08:36:16;8.17;;;2.00;;
20397;SDS011;10358;49.590;11.030;2023-01-10T08:38:43;6.53;;;2.23;;
20397;SDS011;10358;49.590;11.030;2023-01-10T08:41:09;7.53;;;2.33;;
20397;SDS011;10358;49.590;11.030;2023-01-10T08:43:34;9.57;;;2.47;;
20397;SDS011;10358;49.590;11.030;2023-01-10T08:46:00;7.90;;;2.30;;
20397;SDS011;10358;49.590;11.030;2023-01-10T08:48:26;8.70;;;2.37;;
20397;SDS011;10358;49.590;11.030;2023-01-10T08:50:51;5.50;;;2.33;;
20397;SDS011;10358;49.590;11.030;2023-01-10T08:53:17;6.30;;;1.90;;
20397;SDS011;10358;49.590;11.030;2023-01-10T08:55:42;6.50;;;2.37;;
20397;SDS011;10358;49.590;11.030;2023-01-10T08:58:08;10.53;;;2.30;;
20397;SDS011;10358;49.590;11.030;2023-01-10T09:00:34;12.97;;;2.60;;
20397;SDS011;10358;49.590;11.030;2023-01-10T09:03:00;9.07;;;2.70;;
20397;SDS011;10358;49.590;11.030;2023-01-10T09:05:25;8.80;;;2.40;;
20397;SDS011;10358;49.590;11.030;2023-01-10T09:07:51;7.03;;;2.50;;
20397;SDS011;10358;49.590;11.030;2023-01-10T09:10:17;9.13;;;2.80;;
20397;SDS011;10358;49.590;11.030;2023-01-10T09:12:43;10.27;;;3.20;;
20397;SDS011;10358;49.590;11.030;2023-01-10T09:15:21;13.53;;;2.77;;
20397;SDS011;10358;49.590;11.030;2023-01-10T09:17:48;5.77;;;2.53;;
20397;SDS011;10358;49.590;11.030;2023-01-10T09:20:14;8.00;;;2.30;;
20397;SDS011;10358;49.590;11.030;2023-01-10T09:22:40;5.97;;;2.40;;
20397;SDS011;10358;49.590;11.030;2023-01-10T09:25:06;7.93;;;2.70;;
20397;SDS011;10358;49.590;11.030;2023-01-10T09:27:32;9.17;;;2.80;;
20397;SDS011;10358;49.590;11.030;2023-01-10T09:29:57;8.07;;;3.00;;
20397;SDS011;10358;49.590;11.030;2023-01-10T09:32:23;9.17;;;2.60;;
20397;SDS011;10358;49.590;11.030;2023-01-10T09:34:50;9.30;;;2.83;;
20397;SDS011;10358;49.590;11.030;2023-01-10T09:37:15;11.77;;;3.90;;
20397;SDS011;10358;49.590;11.030;2023-01-10T09:39:41;11.90;;;3.30;;
20397;SDS011;10358;49.590;11.030;2023-01-10T09:45:10;6.40;;;2.33;;
20397;SDS011;10358;49.590;11.030;2023-01-10T09:47:52;8.80;;;2.73;;
20397;SDS011;10358;49.590;11.030;2023-01-10T09:50:27;9.83;;;2.73;;
20397;SDS011;10358;49.590;11.030;2023-01-10T09:53:04;7.70;;;2.57;;
20397;SDS011;10358;49.590;11.030;2023-01-10T09:55:35;10.63;;;3.03;;
20397;SDS011;10358;49.590;11.030;2023-01-10T09:58:04;11.67;;;2.73;;
20397;SDS011;10358;49.590;11.030;2023-01-10T10:03:16;13.20;;;2.60;;
20397;SDS011;10358;49.590;11.030;2023-01-10T10:05:43;11.13;;;2.60;;
20397;SDS011;10358;49.590;11.030;2023-01-10T10:08:11;8.83;;;2.90;;
20397;SDS011;10358;49.590;11.030;2023-01-10T10:16:06;13.17;;;2.83;;
20397;SDS011;10358;49.590;11.030;2023-01-10T10:19:13;9.37;;;2.50;;
20397;SDS011;10358;49.590;11.030;2023-01-10T10:27:04;8.80;;;2.40;;
20397;SDS011;10358;49.590;11.030;2023-01-10T10:32:25;11.30;;;2.40;;
20397;SDS011;10358;49.590;11.030;2023-01-10T10:38:08;9.60;;;2.07;;
20397;SDS011;10358;49.590;11.030;2023-01-10T10:40:41;5.93;;;2.30;;
20397;SDS011;10358;49.590;11.030;2023-01-10T10:43:25;13.00;;;2.70;;
20397;SDS011;10358;49.590;11.030;2023-01-10T10:46:02;7.80;;;2.57;;
20397;SDS011;10358;49.590;11.030;2023-01-10T10:48:46;5.17;;;2.00;;
20397;SDS011;10358;49.590;11.030;2023-01-10T10:51:28;9.90;;;2.60;;
20397;SDS011;10358;49.590;11.030;2023-01-10T10:53:57;9.83;;;2.37;;
20397;SDS011;10358;49.590;11.030;2023-01-10T10:56:23;8.23;;;2.20;;
20397;SDS011;10358;49.590;11.030;2023-01-10T10:58:51;7.60;;;2.03;;
20397;SDS011;10358;49.590;11.030;2023-01-10T11:01:20;15.77;;;2.50;;
20397;SDS011;10358;49.590;11.030;2023-01-10T11:03:48;9.07;;;2.30;;
20397;SDS011;10358;49.590;11.030;2023-01-10T11:06:18;9.00;;;2.50;;
20397;SDS011;10358;49.590;11.030;2023-01-10T11:08:46;9.53;;;2.63;;
20397;SDS011;10358;49.590;11.030;2023-01-10T11:11:21;8.73;;;2.30;;
20397;SDS011;10358;49.590;11.030;2023-01-10T11:13:59;7.77;;;2.30;;
20397;SDS011;10358;49.590;11.030;2023-01-10T11:16:27;8.63;;;2.47;;
20397;SDS011;10358;49.590;11.030;2023-01-10T11:19:07;9.13;;;2.10;;
20397;SDS011;10358;49.590;11.030;2023-01-10T11:21:58;8.63;;;1.90;;
20397;SDS011;10358;49.590;11.030;2023-01-10T11:26:57;12.10;;;2.60;;
20397;SDS011;10358;49.590;11.030;2023-01-10T11:31:51;11.03;;;2.60;;
20397;SDS011;10358;49.590;11.030;2023-01-10T11:37:02;8.30;;;2.03;;
20397;SDS011;10358;49.590;11.030;2023-01-10T11:39:40;7.60;;;2.10;;
20397;SDS011;10358;49.590;11.030;2023-01-10T11:44:54;7.53;;;2.00;;
20397;SDS011;10358;49.590;11.030;2023-01-10T11:47:40;9.87;;;2.30;;
20397;SDS011;10358;49.590;11.030;2023-01-10T11:50:10;10.30;;;2.00;;
20397;SDS011;10358;49.590;11.030;2023-01-10T11:52:43;8.40;;;2.27;;
20397;SDS011;10358;49.590;11.030;2023-01-10T11:55:16;9.50;;;2.23;;
20397;SDS011;10358;49.590;11.030;2023-01-10T11:57:44;8.47;;;1.83;;
20397;SDS011;10358;49.590;11.030;2023-01-10T12:00:10;9.87;;;2.20;;
20397;SDS011;10358;49.590;11.030;2023-01-10T12:02:40;9.30;;;2.50;;
20397;SDS011;10358;49.590;11.030;2023-01-10T12:05:08;8.73;;;2.00;;
20397;SDS011;10358;49.590;11.030;2023-01-10T12:10:23;7.83;;;1.83;;
20397;SDS011;10358;49.590;11.030;2023-01-10T12:12:52;8.40;;;1.97;;
20397;SDS011;10358;49.590;11.030;2023-01-10T12:18:01;13.27;;;2.47;;
20397;SDS011;10358;49.590;11.030;2023-01-10T12:20:30;16.37;;;2.67;;
20397;SDS011;10358;49.590;11.030;2023-01-10T12:22:59;9.63;;;2.30;;
20397;SDS011;10358;49.590;11.030;2023-01-10T12:25:33;8.73;;;2.17;;
20397;SDS011;10358;49.590;11.030;2023-01-10T12:28:00;7.40;;;2.00;;
20397;SDS011;10358;49.590;11.030;2023-01-10T12:33:06;9.37;;;2.10;;
20397;SDS011;10358;49.590;11.030;2023-01-10T12:35:45;16.40;;;2.63;;
20397;SDS011;10358;49.590;11.030;2023-01-10T12:38:27;9.30;;;2.17;;
20397;SDS011;10358;49.590;11.030;2023-01-10T12:41:22;8.20;;;2.37;;
20397;SDS011;10358;49.590;11.030;2023-01-10T12:44:17;10.63;;;2.37;;
20397;SDS011;10358;49.590;11.030;2023-01-10T12:46:51;10.93;;;2.30;;
20397;SDS011;10358;49.590;11.030;2023-01-10T12:49:25;9.00;;;2.17;;
20397;SDS011;10358;49.590;11.030;2023-01-10T12:51:55;12.27;;;2.40;;
20397;SDS011;10358;49.590;11.030;2023-01-10T12:54:26;13.63;;;2.40;;
20397;SDS011;10358;49.590;11.030;2023-01-10T12:56:54;8.83;;;2.37;;
20397;SDS011;10358;49.590;11.030;2023-01-10T12:59:24;14.80;;;4.60;;
20397;SDS011;10358;49.590;11.030;2023-01-10T13:02:14;10.43;;;2.30;;
20397;SDS011;10358;49.590;11.030;2023-01-10T13:04:42;9.80;;;2.87;;
20397;SDS011;10358;49.590;11.030;2023-01-10T13:07:12;12.63;;;2.83;;
20397;SDS011;10358;49.590;11.030;2023-01-10T13:09:40;11.83;;;2.70;;
20397;SDS011;10358;49.590;11.030;2023-01-10T13:12:09;13.53;;;3.67;;
20397;SDS011;10358;49.590;11.030;2023-01-10T13:14:52;12.67;;;2.83;;
20397;SDS011;10358;49.590;11.030;2023-01-10T13:22:40;12.03;;;2.43;;
20397;SDS011;10358;49.590;11.030;2023-01-10T13:28:13;14.33;;;2.67;;
20397;SDS011;10358;49.590;11.030;2023-01-10T13:30:55;11.43;;;2.40;;
20397;SDS011;10358;49.590;11.030;2023-01-10T13:36:25;11.33;;;2.23;;
20397;SDS011;10358;49.590;11.030;2023-01-10T13:38:55;11.53;;;2.33;;
20397;SDS011;10358;49.590;11.030;2023-01-10T13:41:23;7.37;;;2.23;;
20397;SDS011;10358;49.590;11.030;2023-01-10T13:44:27;9.37;;;2.30;;
20397;SDS011;10358;49.590;11.030;2023-01-10T13:46:52;11.63;;;2.43;;
20397;SDS011;10358;49.590;11.030;2023-01-10T13:49:51;13.43;;;2.30;;
20397;SDS011;10358;49.590;11.030;2023-01-10T13:52:29;8.30;;;2.07;;
20397;SDS011;10358;49.590;11.030;2023-01-10T13:54:57;10.13;;;2.70;;
20397;SDS011;10358;49.590;11.030;2023-01-10T14:08:53;8.57;;;1.97;;
20397;SDS011;10358;49.590;11.030;2023-01-10T14:11:25;14.80;;;3.00;;
20397;SDS011;10358;49.590;11.030;2023-01-10T14:13:54;6.97;;;1.87;;
20397;SDS011;10358;49.590;11.030;2023-01-10T14:16:35;11.13;;;2.00;;
20397;SDS011;10358;49.590;11.030;2023-01-10T14:19:18;10.40;;;2.20;;
20397;SDS011;10358;49.590;11.030;2023-01-10T14:21:57;14.33;;;2.37;;
20397;SDS011;10358;49.590;11.030;2023-01-10T14:24:26;12.40;;;2.53;;
20397;SDS011;10358;49.590;11.030;2023-01-10T14:26:57;10.83;;;2.23;;
20397;SDS011;10358;49.590;11.030;2023-01-10T14:29:26;11.17;;;2.07;;
20397;SDS011;10358;49.590;11.030;2023-01-10T14:31:55;14.90;;;2.27;;
20397;SDS011;10358;49.590;11.030;2023-01-10T14:34:23;13.67;;;2.33;;
20397;SDS011;10358;49.590;11.030;2023-01-10T14:37:00;11.57;;;2.33;;
20397;SDS011;10358;49.590;11.030;2023-01-10T14:39:31;14.00;;;2.30;;
20397;SDS011;10358;49.590;11.030;2023-01-10T14:41:58;6.53;;;1.90;;
20397;SDS011;10358;49.590;11.030;2023-01-10T14:44:28;13.27;;;2.70;;
20397;SDS011;10358;49.590;11.030;2023-01-10T14:46:59;14.00;;;2.20;;
20397;SDS011;10358;49.590;11.030;2023-01-10T14:49:32;11.23;;;1.97;;
20397;SDS011;10358;49.590;11.030;2023-01-10T14:52:15;11.43;;;2.40;;
20397;SDS011;10358;49.590;11.030;2023-01-10T14:54:53;13.27;;;2.40;;
20397;SDS011;10358;49.590;11.030;2023-01-10T14:57:26;11.50;;;2.30;;
20397;SDS011;10358;49.590;11.030;2023-01-10T15:00:00;12.47;;;2.30;;
20397;SDS011;10358;49.590;11.030;2023-01-10T15:02:28;13.07;;;2.30;;
20397;SDS011;10358;49.590;11.030;2023-01-10T15:05:01;15.03;;;2.87;;
20397;SDS011;10358;49.590;11.030;2023-01-10T15:07:33;12.47;;;2.53;;
20397;SDS011;10358;49.590;11.030;2023-01-10T15:10:00;13.10;;;2.63;;
20397;SDS011;10358;49.590;11.030;2023-01-10T15:12:34;12.10;;;2.83;;
20397;SDS011;10358;49.590;11.030;2023-01-10T15:15:02;14.93;;;2.43;;
20397;SDS011;10358;49.590;11.030;2023-01-10T15:17:29;13.07;;;2.43;;
20397;SDS011;10358;49.590;11.030;2023-01-10T15:19:55;15.07;;;2.93;;
20397;SDS011;10358;49.590;11.030;2023-01-10T15:22:31;11.97;;;2.60;;
20397;SDS011;10358;49.590;11.030;2023-01-10T15:25:03;9.20;;;2.47;;
20397;SDS011;10358;49.590;11.030;2023-01-10T15:27:30;18.03;;;2.57;;
20397;SDS011;10358;49.590;11.030;2023-01-10T15:29:57;15.30;;;3.17;;
20397;SDS011;10358;49.590;11.030;2023-01-10T15:34:52;19.10;;;3.33;;
20397;SDS011;10358;49.590;11.030;2023-01-10T15:37:23;14.33;;;2.37;;
20397;SDS011;10358;49.590;11.030;2023-01-10T15:39:51;12.33;;;2.60;;
20397;SDS011;10358;49.590;11.030;2023-01-10T15:42:20;14.30;;;2.67;;
20397;SDS011;10358;49.590;11.030;2023-01-10T15:44:47;16.53;;;2.70;;
20397;SDS011;10358;49.590;11.030;2023-01-10T15:50:34;14.57;;;3.03;;
20397;SDS011;10358;49.590;11.030;2023-01-10T15:53:05;13.90;;;3.53;;
20397;SDS011;10358;49.590;11.030;2023-01-10T15:55:49;14.63;;;3.40;;
20397;SDS011;10358;49.590;11.030;2023-01-10T16:00:50;12.97;;;2.97;;
20397;SDS011;10358;49.590;11.030;2023-01-10T16:03:22;12.57;;;3.40;;
20397;SDS011;10358;49.590;11.030;2023-01-10T16:05:58;13.73;;;2.87;;
20397;SDS011;10358;49.590;11.030;2023-01-10T16:08:29;14.90;;;3.20;;
20397;SDS011;10358;49.590;11.030;2023-01-10T16:10:59;15.00;;;2.70;;
20397;SDS011;10358;49.590;11.030;2023-01-10T16:13:27;14.07;;;3.03;;
20397;SDS011;10358;49.590;11.030;2023-01-10T16:15:55;15.40;;;3.60;;
20397;SDS011;10358;49.590;11.030;2023-01-10T16:18:24;18.27;;;2.63;;
20397;SDS011;10358;49.590;11.030;2023-01-10T16:20:51;15.53;;;2.87;;
20397;SDS011;10358;49.590;11.030;2023-01-10T16:23:21;16.13;;;3.63;;
20397;SDS011;10358;49.590;11.030;2023-01-10T16:25:49;14.10;;;3.13;;
20397;SDS011;10358;49.590;11.030;2023-01-10T16:28:20;18.73;;;3.73;;
20397;SDS011;10358;49.590;11.030;2023-01-10T16:30:47;14.87;;;4.30;;
20397;SDS011;10358;49.590;11.030;2023-01-10T16:33:17;13.43;;;3.87;;
20397;SDS011;10358;49.590;11.030;2023-01-10T16:35:47;13.83;;;3.03;;
20397;SDS011;10358;49.590;11.030;2023-01-10T16:38:14;9.10;;;2.90;;